CheckWX is a tool to help pilots better visualize weather data.  It is not intended as a substitute for an official pre-flight weather briefing.

04:52:35 UTC

KAVX METAR
Catalina Airport
Avalon, California, USA
Current

1 hour ago

KAVX 180351Z AUTO 17004KT 10SM CLR 13/12 A2993 RMK AO2 SLP127 T01280122 $
Observed
Jun-18 @ 03:51 UTC
Wind
  • 170° at 4 KTS
Visibility
10 SM
Flight Rules
VFR
Cloud Levels
  • Clear skies
Temperature
13°C / 55°F
Dewpoint
12°C / 54°F
Humidity
94%
Altimeter
29.93" Hg
Pressure
1013.52 hPa
Previous

2 hours ago

KAVX 180251Z AUTO 17003KT 10SM CLR 14/12 A2992 RMK AO2 SLP123 T01390122 53004 $
Observed
Jun-18 @ 02:51 UTC
Wind
  • 170° at 3 KTS
Visibility
10 SM
Flight Rules
VFR
Cloud Levels
  • Clear skies
Temperature
14°C / 57°F
Dewpoint
12°C / 54°F
Humidity
88%
Altimeter
29.92" Hg
Pressure
1013.22 hPa
Previous

3 hours ago

KAVX 180151Z AUTO 12006KT 10SM SCT012 14/12 A2991 RMK AO2 SLP120 T01440117 $
Observed
Jun-18 @ 01:51 UTC
Wind
  • 120° at 6 KTS
Visibility
10 SM
Flight Rules
VFR
Cloud Levels
  • Scattered at 1,200' AGL
Temperature
14°C / 57°F
Dewpoint
12°C / 54°F
Humidity
88%
Altimeter
29.91" Hg
Pressure
1012.92 hPa